Time;durP1;ratioP1;P1;durP2;ratioP2;P2;SDS_P1;SDS_P2;PMS_P1;PMS_P2;Temp;Humidity;BMP_temperature;BMP_pressure;BME280_temperature;BME280_humidity;BME280_pressure;Samples;Min_cycle;Max_cycle;Signal;HPM_P1;HPM_P2
2022/05/08 00:01:26;;;;;;;56.70;43.10;;;;;;;13.04;60.28;101007.69;109190;1264;22026;-79
2022/05/08 00:04:03;;;;;;;57.90;43.90;;;;;;;13.04;60.51;101005.77;108949;1267;21980;-79
2022/05/08 00:06:38;;;;;;;57.10;41.60;;;;;;;13.04;60.52;101005.91;109317;1262;22013;-79
2022/05/08 00:09:13;;;;;;;56.10;45.20;;;;;;;13.04;60.64;101003.80;109752;1260;23574;-78
2022/05/08 00:11:44;;;;;;;57.40;44.00;;;;;;;13.04;60.83;101003.30;109995;1257;21997;-79
2022/05/08 00:14:22;;;;;;;57.70;44.40;;;;;;;13.00;60.80;101000.13;109802;1262;22017;-79
2022/05/08 00:16:52;;;;;;;57.30;44.00;;;;;;;12.93;60.94;101003.18;109447;1264;23779;-81
2022/05/08 00:19:24;;;;;;;55.30;42.20;;;;;;;12.88;61.18;101002.00;109069;1267;24867;-79
2022/05/08 00:21:53;;;;;;;58.70;43.50;;;;;;;12.87;61.58;100998.52;108967;1264;22043;-81
2022/05/08 00:24:35;;;;;;;57.30;44.10;;;;;;;12.91;61.75;100994.23;109394;1263;22983;-80
2022/05/08 00:27:12;;;;;;;50.80;42.20;;;;;;;12.93;61.56;100995.22;109315;1264;22064;-81
2022/05/08 00:29:41;;;;;;;58.50;43.80;;;;;;;12.92;61.30;100997.81;109193;1264;21993;-80
2022/05/08 00:32:16;;;;;;;;;;;;;;;12.88;61.16;100998.95;109616;1257;21959;-80
2022/05/08 00:34:52;;;;;;;57.90;44.10;;;;;;;12.75;61.41;100997.40;110029;1258;21971;-78
2022/05/08 00:37:41;;;;;;;57.60;45.20;;;;;;;12.68;61.75;100995.84;110222;1252;21984;-81
2022/05/08 00:40:13;;;;;;;57.30;44.60;;;;;;;12.66;61.79;100999.23;109977;1257;22058;-79
2022/05/08 00:42:49;;;;;;;58.80;43.20;;;;;;;12.63;61.80;101001.50;110347;1257;21969;-81
2022/05/08 00:45:24;;;;;;;68.90;47.10;;;;;;;12.60;61.89;101000.55;109816;1260;23606;-80
2022/05/08 00:47:58;;;;;;;59.50;46.00;;;;;;;12.57;61.79;100999.28;109798;1261;23728;-81
2022/05/08 00:50:43;;;;;;;;;;;;;;;;;;;;;
2022/05/08 00:53:16;;;;;;;57.00;44.50;;;;;;;12.54;62.05;100994.37;109773;1260;23614;-80
2022/05/08 00:55:57;;;;;;;57.70;47.20;;;;;;;12.51;62.14;100994.52;109545;1261;21979;-80
2022/05/08 00:58:54;;;;;;;59.40;47.10;;;;;;;12.49;62.32;100993.81;109974;1256;21989;-79
2022/05/08 01:01:31;;;;;;;57.00;48.50;;;;;;;12.48;62.52;100989.34;110247;1257;21973;-80
2022/05/08 01:04:04;;;;;;;58.70;47.30;;;;;;;12.46;62.62;100987.31;110653;1251;21970;-81
2022/05/08 01:06:34;;;;;;;57.90;49.10;;;;;;;12.42;62.54;100990.00;110629;1251;23134;-80
2022/05/08 01:09:06;;;;;;;60.00;49.90;;;;;;;12.40;62.63;100986.31;110680;1252;22063;-81
2022/05/08 01:11:38;;;;;;;62.10;49.00;;;;;;;12.38;62.47;100988.86;110779;1252;22054;-81
2022/05/08 01:14:14;;;;;;;65.10;47.70;;;;;;;12.35;62.57;100987.08;110235;1259;21993;-80
2022/05/08 01:16:46;;;;;;;62.30;47.10;;;;;;;12.33;62.56;100991.48;110394;1256;22217;-81
2022/05/08 01:19:38;;;;;;;63.90;47.70;;;;;;;12.31;62.72;100989.92;110216;1257;22701;-80
2022/05/08 01:22:07;;;;;;;58.30;48.60;;;;;;;12.30;62.88;100989.13;110444;1256;21964;-80
2022/05/08 01:24:37;;;;;;;60.40;46.30;;;;;;;12.32;62.90;100990.38;110031;1257;23608;-80
2022/05/08 01:27:06;;;;;;;59.90;47.30;;;;;;;12.33;63.01;100987.80;110155;1255;23749;-79
2022/05/08 01:29:36;;;;;;;59.20;48.40;;;;;;;12.32;63.05;100987.07;109932;1257;23036;-79
2022/05/08 01:32:08;;;;;;;62.50;48.40;;;;;;;12.27;62.97;100986.99;109234;1261;21976;-78
2022/05/08 01:34:40;;;;;;;64.30;50.30;;;;;;;12.22;62.88;100990.33;110022;1258;22061;-79
2022/05/08 01:37:12;;;;;;;57.90;47.00;;;;;;;12.18;62.91;100989.92;109359;1263;22036;-79
2022/05/08 01:39:44;;;;;;;59.30;46.60;;;;;;;12.14;62.99;100992.47;109439;1263;23494;-79
2022/05/08 01:42:27;;;;;;;62.30;48.70;;;;;;;12.11;63.18;100991.14;109422;1264;23559;-79
2022/05/08 01:45:04;;;;;;;59.10;47.00;;;;;;;12.11;63.57;100984.98;109319;1264;21972;-81
2022/05/08 01:50:40;;;;;;;58.90;45.10;;;;;;;12.15;63.95;100977.14;109600;1260;23694;-80
2022/05/08 01:53:12;;;;;;;51.90;41.50;;;;;;;12.15;64.06;100980.71;109048;1263;22675;-79
2022/05/08 01:55:42;;;;;;;56.30;40.70;;;;;;;12.16;64.03;100981.25;109190;1263;21993;-79
2022/05/08 01:58:11;;;;;;;48.90;39.60;;;;;;;12.14;63.82;100977.58;109055;1264;23693;-78
2022/05/08 02:00:45;;;;;;;52.70;40.80;;;;;;;12.07;63.80;100974.31;109191;1263;23417;-78
2022/05/08 02:03:25;;;;;;;48.50;40.40;;;;;;;11.99;63.81;100977.08;109194;1264;21979;-79
2022/05/08 02:06:01;;;;;;;50.20;38.70;;;;;;;11.92;64.04;100976.96;109364;1264;21970;-78
2022/05/08 02:08:43;;;;;;;50.40;41.70;;;;;;;11.87;64.45;100977.08;108967;1266;22045;-78
2022/05/08 02:11:33;;;;;;;51.60;38.30;;;;;;;11.87;64.53;100978.86;108724;1270;21999;-79
2022/05/08 02:14:08;;;;;;;54.50;40.00;;;;;;;11.83;64.32;100980.19;108843;1270;22086;-79
2022/05/08 02:16:48;;;;;;;50.70;41.70;;;;;;;11.76;64.33;100981.94;108817;1270;22118;-78
2022/05/08 02:19:21;;;;;;;54.40;43.70;;;;;;;11.72;64.61;100984.05;108841;1267;21980;-79
2022/05/08 02:22:13;;;;;;;54.10;41.00;;;;;;;11.71;64.83;100986.27;109259;1267;21988;-78
2022/05/08 02:24:44;;;;;;;55.10;42.90;;;;;;;11.71;64.78;100985.29;109034;1266;22016;-79
2022/05/08 02:27:17;;;;;;;57.80;44.50;;;;;;;11.70;64.94;100982.57;108764;1270;21989;-79
2022/05/08 02:29:52;;;;;;;55.80;42.40;;;;;;;11.70;64.90;100981.16;108966;1267;24508;-79
2022/05/08 02:32:38;;;;;;;53.40;42.20;;;;;;;11.71;64.85;100985.29;109563;1256;22733;-79
2022/05/08 02:35:24;;;;;;;58.60;42.70;;;;;;;11.71;64.82;100985.91;110486;1255;21962;-79
2022/05/08 02:37:56;;;;;;;55.80;41.40;;;;;;;11.73;64.85;100984.16;110312;1255;22700;-79
2022/05/08 02:40:32;;;;;;;54.20;42.10;;;;;;;11.76;64.93;100980.34;110204;1258;22133;-78
2022/05/08 02:43:03;;;;;;;52.50;40.20;;;;;;;11.80;65.20;100983.06;110260;1255;23655;-78
2022/05/08 02:45:32;;;;;;;53.20;42.30;;;;;;;11.85;65.24;100988.67;109590;1261;23593;-79
2022/05/08 02:48:05;;;;;;;51.70;43.50;;;;;;;11.88;65.20;100992.13;109384;1266;22099;-78
2022/05/08 02:50:35;;;;;;;52.80;41.40;;;;;;;11.92;65.02;100992.44;109118;1266;23624;-78
2022/05/08 02:53:06;;;;;;;55.20;43.50;;;;;;;11.94;64.75;100995.26;108950;1267;21969;-78
2022/05/08 02:58:35;;;;;;;65.10;49.00;;;;;;;11.88;64.59;101002.02;108973;1270;23693;-79
2022/05/08 03:01:08;;;;;;;50.70;41.80;;;;;;;11.82;64.45;100998.58;109086;1268;23878;-79
2022/05/08 03:03:41;;;;;;;52.90;41.00;;;;;;;11.76;64.56;101006.26;109039;1266;21978;-79
2022/05/08 03:06:13;;;;;;;54.00;40.80;;;;;;;11.75;64.74;101004.77;109265;1264;21974;-79
2022/05/08 03:08:44;;;;;;;;;;;;;;;11.77;64.96;101002.85;108993;1267;23640;-79
2022/05/08 03:11:26;;;;;;;47.30;38.90;;;;;;;11.72;65.13;101006.56;108844;1266;21981;-78
2022/05/08 03:13:57;;;;;;;46.70;39.10;;;;;;;11.68;64.58;101008.39;109395;1260;21969;-80
2022/05/08 03:16:29;;;;;;;52.10;40.50;;;;;;;11.59;64.30;101013.48;108831;1267;22046;-79
2022/05/08 03:19:21;;;;;;;54.20;41.20;;;;;;;11.56;64.84;101017.50;108904;1270;22007;-79
2022/05/08 03:21:51;;;;;;;50.80;41.90;;;;;;;11.59;64.92;101020.40;108655;1273;22045;-80
2022/05/08 03:24:24;;;;;;;50.20;41.10;;;;;;;11.62;64.94;101021.54;108486;1276;22441;-80
2022/05/08 03:26:54;;;;;;;50.60;41.40;;;;;;;11.64;64.94;101021.46;108452;1273;23100;-81
2022/05/08 03:29:25;;;;;;;55.30;42.60;;;;;;;11.67;65.01;101020.05;108453;1274;21993;-80
2022/05/08 03:31:55;;;;;;;54.40;40.90;;;;;;;11.71;65.02;101021.58;108476;1273;22000;-79
2022/05/08 03:34:28;;;;;;;51.00;43.00;;;;;;;11.71;65.02;101020.56;108373;1273;23017;-79
2022/05/08 03:37:00;;;;;;;53.50;41.70;;;;;;;11.73;65.15;101022.45;108445;1271;23702;-80
2022/05/08 03:39:29;;;;;;;53.00;38.90;;;;;;;11.74;65.20;101024.08;108486;1270;22977;-79
2022/05/08 03:42:01;;;;;;;53.40;41.10;;;;;;;11.73;65.12;101024.92;108788;1267;23162;-79
2022/05/08 03:44:35;;;;;;;48.60;39.20;;;;;;;11.72;65.24;101023.93;109075;1270;22057;-80
2022/05/08 03:47:07;;;;;;;44.30;37.10;;;;;;;11.72;65.50;101030.36;108863;1270;21967;-80
2022/05/08 03:49:40;;;;;;;44.60;37.60;;;;;;;11.72;65.39;101038.67;109037;1269;23779;-80
2022/05/08 03:52:12;;;;;;;45.50;35.40;;;;;;;11.72;65.39;101042.14;108756;1270;24153;-78
2022/05/08 03:54:45;;;;;;;37.80;32.40;;;;;;;11.74;65.56;101042.80;109066;1267;21979;-79
2022/05/08 03:57:17;;;;;;;42.00;32.20;;;;;;;11.78;65.67;101041.86;109239;1264;23057;-79
2022/05/08 03:59:47;;;;;;;45.80;33.30;;;;;;;11.84;65.51;101046.58;109192;1265;21965;-80
2022/05/08 04:02:16;;;;;;;43.50;35.70;;;;;;;11.90;65.44;101049.68;109312;1258;22911;-80
2022/05/08 04:04:46;;;;;;;42.60;34.60;;;;;;;11.93;65.31;101046.86;109887;1262;22777;-79
2022/05/08 04:07:18;;;;;;;38.30;31.30;;;;;;;11.97;65.26;101051.92;109570;1260;23002;-79
2022/05/08 04:09:53;;;;;;;48.70;36.70;;;;;;;12.02;65.21;101053.38;109413;1257;22731;-80
2022/05/08 04:12:27;;;;;;;43.90;35.60;;;;;;;12.09;65.16;101050.19;109933;1257;21953;-79
2022/05/08 04:14:59;;;;;;;43.80;38.90;;;;;;;12.12;65.22;101052.81;109760;1261;21997;-80
2022/05/08 04:17:33;;;;;;;71.00;46.40;;;;;;;12.16;65.07;101054.88;109915;1260;23506;-80
2022/05/08 04:20:03;;;;;;;55.50;40.40;;;;;;;12.18;64.93;101057.45;109699;1263;24296;-80
2022/05/08 04:25:24;;;;;;;53.10;42.20;;;;;;;12.23;64.98;101056.85;109233;1267;23081;-80
2022/05/08 04:27:56;;;;;;;50.50;37.60;;;;;;;12.28;64.89;101061.11;108922;1271;22861;-79
2022/05/08 04:30:27;;;;;;;46.50;37.90;;;;;;;12.33;64.74;101064.44;108610;1273;22578;-80
2022/05/08 04:32:58;;;;;;;45.10;34.20;;;;;;;12.39;64.70;101059.74;108704;1270;23154;-80
2022/05/08 04:35:29;;;;;;;39.40;34.20;;;;;;;12.44;64.61;101057.46;108708;1270;22029;-80
2022/05/08 04:37:59;;;;;;;42.40;34.10;;;;;;;12.49;64.56;101055.83;108611;1273;22055;-80
2022/05/08 04:40:30;;;;;;;41.80;35.00;;;;;;;12.54;64.46;101059.17;108687;1273;21992;-81
2022/05/08 04:43:00;;;;;;;38.60;32.50;;;;;;;12.60;64.49;101062.27;108457;1271;22213;-80
2022/05/08 04:45:30;;;;;;;40.50;32.50;;;;;;;12.68;64.64;101061.98;108987;1267;23116;-80
2022/05/08 04:47:59;;;;;;;42.10;31.00;;;;;;;12.75;64.44;101063.31;109270;1268;22962;-81
2022/05/08 04:50:31;;;;;;;40.90;32.60;;;;;;;12.80;64.35;101059.67;109044;1268;23007;-80
2022/05/08 04:53:02;;;;;;;46.00;31.30;;;;;;;12.85;64.52;101059.24;109174;1267;22472;-79
2022/05/08 04:55:36;;;;;;;35.10;30.00;;;;;;;12.92;64.55;101060.20;109754;1256;22191;-79
2022/05/08 04:58:13;;;;;;;43.70;31.40;;;;;;;12.97;64.34;101059.14;109814;1261;23583;-80
2022/05/08 05:00:44;;;;;;;43.00;32.50;;;;;;;13.01;64.21;101063.88;109424;1257;23037;-80
2022/05/08 05:03:14;;;;;;;45.20;30.50;;;;;;;13.04;64.14;101066.38;110479;1257;21960;-81
2022/05/08 05:05:44;;;;;;;29.90;26.60;;;;;;;13.08;64.14;101070.15;110328;1257;21964;-81
2022/05/08 05:08:13;;;;;;;34.00;27.20;;;;;;;13.14;64.22;101075.31;110285;1258;23835;-80
2022/05/08 05:10:42;;;;;;;36.10;27.70;;;;;;;13.22;64.38;101077.92;110241;1257;21975;-80
2022/05/08 05:13:12;;;;;;;40.40;27.30;;;;;;;13.30;64.24;101082.35;110287;1258;22751;-79
2022/05/08 05:15:43;;;;;;;;;;;;;;;13.38;64.32;101087.77;110146;1255;21982;-82
2022/05/08 05:18:14;;;;;;;29.70;24.70;;;;;;;13.42;64.47;101091.64;110116;1260;22070;-80
2022/05/08 05:20:54;;;;;;;29.40;24.20;;;;;;;13.52;64.38;101090.56;110221;1259;22484;-80
2022/05/08 05:23:28;;;;;;;29.90;24.80;;;;;;;13.66;64.10;101094.71;109916;1259;21961;-80
2022/05/08 05:26:00;;;;;;;30.20;23.90;;;;;;;13.76;63.86;101096.60;110083;1259;23036;-80
2022/05/08 05:28:31;;;;;;;34.20;23.40;;;;;;;13.86;63.74;101099.17;109840;1259;23106;-80
2022/05/08 05:31:23;;;;;;;29.60;24.20;;;;;;;13.97;63.67;101106.90;109954;1260;22860;-80
2022/05/08 05:33:53;;;;;;;27.30;22.10;;;;;;;14.09;63.63;101109.15;110182;1256;22048;-80
2022/05/08 05:36:25;;;;;;;29.10;20.80;;;;;;;14.21;63.45;101104.98;110707;1251;23051;-80
2022/05/08 05:38:56;;;;;;;24.00;20.20;;;;;;;14.33;63.28;101104.42;110892;1252;23663;-80
2022/05/08 05:41:25;;;;;;;20.00;17.60;;;;;;;14.47;63.33;101103.63;110253;1258;21976;-80
2022/05/08 05:43:57;;;;;;;20.00;17.90;;;;;;;14.61;63.22;101107.02;110243;1257;23681;-81
2022/05/08 05:49:27;;;;;;;14.70;13.30;;;;;;;14.89;63.25;101110.93;110481;1257;22667;-80
2022/05/08 05:52:05;;;;;;;15.30;13.70;;;;;;;15.00;62.96;101108.22;110298;1257;24226;-79
2022/05/08 05:54:35;;;;;;;15.90;13.20;;;;;;;15.06;62.92;101106.41;110299;1258;22781;-79
2022/05/08 05:57:06;;;;;;;15.10;13.60;;;;;;;15.13;62.86;101106.11;109472;1264;21980;-81
2022/05/08 05:59:36;;;;;;;17.40;13.40;;;;;;;15.20;62.73;101105.70;109760;1257;22037;-80
2022/05/08 06:02:08;;;;;;;14.60;13.20;;;;;;;15.28;62.73;101107.73;110573;1257;22144;-79
2022/05/08 06:04:40;;;;;;;16.00;14.00;;;;;;;15.35;62.61;101109.96;110467;1258;21979;-80
2022/05/08 06:07:10;;;;;;;13.70;12.40;;;;;;;15.41;62.63;101110.10;110298;1257;21962;-79
2022/05/08 06:09:42;;;;;;;17.20;13.60;;;;;;;15.48;62.30;101112.17;110310;1258;23056;-78
2022/05/08 06:12:12;;;;;;;16.50;14.80;;;;;;;15.52;62.10;101109.20;110414;1255;22001;-79
2022/05/08 06:14:42;;;;;;;13.30;12.00;;;;;;;15.56;61.91;101110.45;110067;1256;21964;-78
2022/05/08 06:17:13;;;;;;;18.50;11.60;;;;;;;15.60;61.83;101111.81;110421;1255;23054;-79
2022/05/08 06:19:43;;;;;;;15.00;11.70;;;;;;;15.62;61.65;101111.77;110597;1255;23045;-79
2022/05/08 06:22:12;;;;;;;12.10;10.00;;;;;;;15.63;61.76;101109.98;110422;1256;21965;-77
2022/05/08 06:24:44;;;;;;;12.60;9.60;;;;;;;15.69;61.85;101113.77;110247;1258;21961;-77
2022/05/08 06:27:17;;;;;;;11.30;10.20;;;;;;;15.76;61.64;101119.34;110342;1255;23640;-78
2022/05/08 06:29:50;;;;;;;11.20;8.10;;;;;;;15.79;61.24;101125.03;110337;1257;21992;-79
2022/05/08 06:32:21;;;;;;;9.10;8.20;;;;;;;15.76;60.69;101124.42;110420;1250;22027;-79
2022/05/08 06:34:51;;;;;;;11.80;8.10;;;;;;;15.71;60.53;101124.35;110034;1255;21983;-79
2022/05/08 06:37:23;;;;;;;10.40;8.80;;;;;;;15.71;60.69;101125.90;110167;1259;21978;-77
2022/05/08 06:39:52;;;;;;;9.70;8.60;;;;;;;15.78;61.01;101129.73;109873;1260;22761;-79
2022/05/08 06:42:21;;;;;;;10.70;9.10;;;;;;;15.84;60.96;101130.67;109850;1259;23596;-78
2022/05/08 06:44:55;;;;;;;9.30;8.30;;;;;;;15.92;61.00;101129.11;110046;1259;21978;-78
2022/05/08 06:47:27;;;;;;;10.00;9.00;;;;;;;16.02;60.79;101126.75;109855;1259;24297;-78
2022/05/08 06:49:56;;;;;;;11.10;8.80;;;;;;;16.09;60.70;101127.98;109057;1265;251268;-79
2022/05/08 06:52:26;;;;;;;12.80;9.30;;;;;;;16.13;60.30;101130.34;108951;1267;22174;-78
2022/05/08 06:54:55;;;;;;;10.20;9.00;;;;;;;16.17;60.31;101131.38;109255;1263;21992;-78
2022/05/08 06:57:24;;;;;;;9.40;7.00;;;;;;;16.28;60.10;101133.61;109947;1261;22485;-78
2022/05/08 07:02:47;;;;;;;9.20;7.20;;;;;;;16.59;60.05;101130.27;110122;1258;22448;-79
2022/05/08 07:05:20;;;;;;;11.10;8.60;;;;;;;16.79;59.68;101133.18;110203;1259;22044;-78
2022/05/08 07:07:52;;;;;;;10.80;8.30;;;;;;;16.98;59.11;101135.73;109813;1258;23038;-77
2022/05/08 07:10:21;;;;;;;11.50;8.60;;;;;;;17.18;58.92;101138.29;110416;1251;22990;-78
2022/05/08 07:12:51;;;;;;;8.30;7.50;;;;;;;17.45;58.34;101136.95;110872;1249;21953;-78
2022/05/08 07:15:20;;;;;;;8.60;6.50;;;;;;;17.66;57.32;101140.15;110081;1256;22990;-79
2022/05/08 07:18:11;;;;;;;13.20;10.30;;;;;;;17.90;57.17;101139.20;110112;1257;23039;-78
2022/05/08 07:20:41;;;;;;;10.10;7.80;;;;;;;18.28;57.51;101139.54;109482;1262;21980;-79
2022/05/08 07:23:11;;;;;;;8.00;6.00;;;;;;;18.77;55.90;101143.67;108945;1268;21982;-78
2022/05/08 07:25:41;;;;;;;10.20;6.30;;;;;;;19.08;54.67;101142.13;108855;1270;22341;-78
2022/05/08 07:28:11;;;;;;;7.20;6.30;;;;;;;19.34;53.07;101147.42;108759;1271;24314;-79
2022/05/08 07:30:43;;;;;;;7.10;6.00;;;;;;;19.43;51.84;101143.62;108746;1271;22439;-79
2022/05/08 07:33:16;;;;;;;6.90;6.00;;;;;;;19.51;51.79;101146.83;109044;1267;21984;-77
2022/05/08 07:38:34;;;;;;;10.70;5.70;;;;;;;20.34;52.40;101153.55;109005;1264;21976;-78
2022/05/08 07:41:06;;;;;;;5.80;5.00;;;;;;;20.92;51.36;101156.13;109746;1259;23641;-78
2022/05/08 07:43:35;;;;;;;7.60;6.00;;;;;;;21.40;49.18;101154.02;109662;1262;22385;-78
2022/05/08 07:46:05;;;;;;;8.80;6.00;;;;;;;21.63;47.05;101157.98;109550;1262;23547;-78
2022/05/08 07:48:34;;;;;;;6.00;5.10;;;;;;;21.83;46.80;101157.45;109799;1262;21971;-77
2022/05/08 07:51:06;;;;;;;5.00;4.50;;;;;;;22.16;46.92;101163.90;110106;1256;23699;-78
2022/05/08 07:53:35;;;;;;;4.50;4.10;;;;;;;22.52;45.78;101169.39;110145;1256;22969;-79
2022/05/08 07:56:05;;;;;;;5.00;4.00;;;;;;;22.78;44.41;101169.72;110124;1256;23568;-79
2022/05/08 07:58:35;;;;;;;9.80;8.40;;;;;;;22.98;43.69;101173.99;110029;1256;22036;-75
2022/05/08 08:01:13;;;;;;;5.90;5.30;;;;;;;23.17;42.98;101180.98;110400;1252;21966;-79
2022/05/08 08:03:44;;;;;;;6.80;4.90;;;;;;;23.25;42.45;101183.02;109509;1261;21968;-80
2022/05/08 08:06:13;;;;;;;11.10;5.60;;;;;;;23.40;42.33;101181.45;109296;1263;22995;-78
2022/05/08 08:08:45;;;;;;;6.60;4.80;;;;;;;23.56;41.81;101180.18;109269;1263;21972;-77
2022/05/08 08:11:14;;;;;;;6.10;4.50;;;;;;;23.67;41.18;101182.12;108923;1269;23648;-78
2022/05/08 08:13:43;;;;;;;5.80;4.50;;;;;;;23.68;40.64;101183.48;108948;1268;23035;-78
2022/05/08 08:16:12;;;;;;;7.40;4.60;;;;;;;23.63;40.56;101181.46;108941;1269;23720;-78
2022/05/08 08:18:44;;;;;;;6.30;5.00;;;;;;;23.64;40.27;101186.22;109142;1267;23344;-77
2022/05/08 08:21:16;;;;;;;7.10;4.60;;;;;;;23.65;40.13;101186.05;108957;1261;23596;-77
2022/05/08 08:23:45;;;;;;;4.60;4.10;;;;;;;23.61;39.77;101186.44;109762;1262;22085;-78
2022/05/08 08:26:15;;;;;;;8.70;4.30;;;;;;;23.62;39.64;101188.17;109436;1260;21982;-75
2022/05/08 08:28:46;;;;;;;8.10;4.10;;;;;;;23.65;39.63;101191.39;109228;1264;23296;-79
2022/05/08 08:31:16;;;;;;;11.30;4.60;;;;;;;23.69;39.44;101194.79;109183;1261;23582;-77
2022/05/08 08:33:46;;;;;;;8.00;4.30;;;;;;;23.73;39.69;101198.23;109279;1266;21976;-77
2022/05/08 08:36:15;;;;;;;6.40;4.60;;;;;;;23.84;39.53;101200.38;109093;1265;23607;-76
2022/05/08 08:38:44;;;;;;;7.20;5.40;;;;;;;23.97;39.14;101202.80;108894;1268;21973;-76
2022/05/08 08:41:14;;;;;;;4.60;4.00;;;;;;;24.23;39.39;101204.20;108881;1269;21990;-76
2022/05/08 08:49:25;;;;;;;10.90;4.10;;;;;;;23.95;37.43;101208.50;108858;1270;22928;-74
2022/05/08 08:51:55;;;;;;;12.00;4.40;;;;;;;23.85;38.20;101204.61;108955;1267;21966;-77
2022/05/08 08:54:24;;;;;;;9.00;4.50;;;;;;;24.05;39.01;101205.15;109235;1266;22039;-77
2022/05/08 08:56:53;;;;;;;8.80;4.10;;;;;;;24.33;38.48;101202.86;109496;1258;21984;-76
2022/05/08 08:59:30;;;;;;;4.50;4.00;;;;;;;24.61;38.39;101208.47;110326;1257;22029;-78
2022/05/08 09:01:59;;;;;;;7.70;4.40;;;;;;;24.97;37.52;101208.98;110334;1249;23566;-78
2022/05/08 09:04:28;;;;;;;9.10;4.70;;;;;;;25.23;37.26;101207.14;110791;1249;22053;-77
2022/05/08 09:06:57;;;;;;;6.70;4.60;;;;;;;25.56;36.80;101209.30;110722;1249;23588;-78
2022/05/08 09:09:33;;;;;;;4.40;4.00;;;;;;;25.80;35.68;101207.42;110814;1249;21957;-76
2022/05/08 09:12:16;;;;;;;6.10;3.80;;;;;;;26.02;35.79;101210.83;110640;1249;24567;-77
2022/05/08 09:14:45;;;;;;;11.00;4.00;;;;;;;26.04;34.13;101211.70;110611;1249;22957;-78
2022/05/08 09:17:14;;;;;;;10.10;4.80;;;;;;;25.70;33.52;101213.15;110290;1257;23904;-78
2022/05/08 09:19:43;;;;;;;5.20;3.10;;;;;;;25.51;34.73;101217.34;110299;1257;21978;-77
2022/05/08 09:22:12;;;;;;;5.20;3.00;;;;;;;25.66;34.88;101218.29;109986;1258;23033;-77
2022/05/08 09:24:53;;;;;;;4.70;3.20;;;;;;;25.89;34.29;101216.59;110031;1258;22047;-77
2022/05/08 09:27:22;;;;;;;6.20;4.10;;;;;;;26.05;33.55;101214.81;110350;1257;24406;-77
2022/05/08 09:30:06;;;;;;;4.80;3.60;;;;;;;26.19;33.22;101210.83;110024;1258;22022;-77
2022/05/08 09:32:39;;;;;;;5.00;3.20;;;;;;;26.39;33.27;101210.06;110157;1258;23739;-77
2022/05/08 09:35:08;;;;;;;4.70;3.40;;;;;;;26.59;32.76;101210.70;110420;1249;23010;-76
2022/05/08 09:37:54;;;;;;;10.90;4.20;;;;;;;26.63;32.29;101204.23;110757;1249;24291;-78
2022/05/08 09:40:24;;;;;;;8.10;5.70;;;;;;;26.75;32.23;101205.89;110329;1257;23753;-77
2022/05/08 09:42:54;;;;;;;3.80;3.10;;;;;;;26.76;31.95;101210.30;110315;1257;23121;-77
2022/05/08 09:45:23;;;;;;;4.50;3.20;;;;;;;26.67;31.91;101208.41;110256;1258;22023;-76
2022/05/08 09:47:52;;;;;;;8.40;5.30;;;;;;;26.46;31.50;101205.11;110343;1258;21976;-77
2022/05/08 09:50:21;;;;;;;7.90;3.60;;;;;;;26.29;32.01;101202.94;110338;1256;23086;-77
2022/05/08 09:52:50;;;;;;;6.60;3.30;;;;;;;26.23;32.43;101200.54;110291;1257;21965;-77
2022/05/08 09:55:20;;;;;;;6.40;3.00;;;;;;;26.11;32.32;101200.92;110422;1255;24197;-77
2022/05/08 09:57:49;;;;;;;5.40;2.80;;;;;;;25.95;32.90;101205.46;110328;1254;23696;-76
2022/05/08 10:00:18;;;;;;;4.70;2.70;;;;;;;25.77;32.79;101206.27;110791;1249;21953;-77
2022/05/08 10:02:49;;;;;;;5.20;2.70;;;;;;;25.52;32.76;101208.42;110905;1249;23666;-77
2022/05/08 10:05:18;;;;;;;4.10;2.40;;;;;;;25.28;32.97;101207.77;110895;1249;21975;-77
2022/05/08 10:07:50;;;;;;;3.00;2.40;;;;;;;25.15;33.54;101205.00;110653;1250;22014;-77
2022/05/08 10:15:53;;;;;;;6.70;3.90;;;;;;;24.63;34.33;101202.73;110724;1249;23061;-76
2022/05/08 10:18:28;;;;;;;10.20;7.40;;;;;;;24.55;34.66;101201.04;110896;1249;21957;-77
2022/05/08 10:21:08;;;;;;;7.20;3.90;;;;;;;24.40;34.64;101199.54;110803;1252;24344;-77
2022/05/08 10:23:38;;;;;;;4.10;3.30;;;;;;;24.22;35.11;101200.24;110792;1249;22010;-77
2022/05/08 10:26:23;;;;;;;8.50;3.10;;;;;;;24.30;35.90;101201.85;110640;1253;23499;-78
2022/05/08 10:29:22;;;;;;;6.30;3.20;;;;;;;24.38;35.76;101201.73;110850;1249;24294;-78
2022/05/08 10:31:51;;;;;;;4.10;2.80;;;;;;;24.27;35.07;101205.52;110348;1257;22702;-77
2022/05/08 10:34:33;;;;;;;;;;;;;;;24.09;35.12;101202.01;110334;1256;21953;-76
2022/05/08 10:37:12;;;;;;;6.90;3.60;;;;;;;23.83;35.52;101198.79;110331;1257;21981;-77
2022/05/08 10:39:46;;;;;;;5.80;3.30;;;;;;;23.84;36.25;101197.41;110391;1256;21966;-77
2022/05/08 10:42:27;;;;;;;4.20;3.00;;;;;;;23.84;36.13;101196.49;109601;1263;23722;-75
2022/05/08 10:44:57;;;;;;;5.00;2.80;;;;;;;23.82;36.22;101198.77;109718;1264;22098;-77
2022/05/08 10:47:33;;;;;;;8.00;3.00;;;;;;;23.83;36.26;101192.64;109535;1264;23394;-76
2022/05/08 10:50:10;;;;;;;4.50;2.70;;;;;;;23.93;36.19;101193.58;109754;1262;22834;-76
2022/05/08 10:52:43;;;;;;;3.90;2.80;;;;;;;24.02;35.98;101189.61;109747;1263;22951;-77
2022/05/08 10:55:15;;;;;;;5.90;2.80;;;;;;;24.09;35.81;101185.86;109550;1263;23687;-76
2022/05/08 10:57:48;;;;;;;6.20;2.10;;;;;;;24.10;35.26;101183.50;109251;1267;23146;-77
2022/05/08 11:00:23;;;;;;;5.50;2.30;;;;;;;24.00;34.95;101182.48;109402;1262;22046;-76
2022/05/08 11:03:00;;;;;;;5.70;2.80;;;;;;;23.84;34.68;101184.67;109939;1262;21986;-76
2022/05/08 11:05:37;;;;;;;5.00;3.10;;;;;;;23.69;35.08;101185.98;109622;1263;22182;-76
2022/05/08 11:08:13;;;;;;;9.20;2.80;;;;;;;23.56;35.09;101184.65;109867;1257;21966;-76
2022/05/08 11:10:44;;;;;;;4.00;1.80;;;;;;;23.44;35.29;101182.41;109994;1260;22039;-77
2022/05/08 11:13:21;;;;;;;5.00;2.60;;;;;;;23.40;35.45;101179.61;110288;1255;23071;-76
2022/05/08 11:15:50;;;;;;;3.10;2.50;;;;;;;23.40;35.89;101174.92;110390;1249;23664;-76
2022/05/08 11:18:27;;;;;;;4.00;2.20;;;;;;;23.37;36.01;101170.63;110750;1251;21969;-77
2022/05/08 11:20:59;;;;;;;3.20;2.10;;;;;;;23.45;36.30;101170.16;110669;1250;23623;-76
2022/05/08 11:23:33;;;;;;;4.80;2.50;;;;;;;23.53;36.29;101171.52;110847;1250;22140;-77
2022/05/08 11:26:09;;;;;;;6.60;2.90;;;;;;;23.48;35.62;101170.15;110538;1251;22150;-76
2022/05/08 11:28:50;;;;;;;5.60;2.10;;;;;;;23.40;35.65;101169.27;110797;1249;23126;-77
2022/05/08 11:31:20;;;;;;;5.30;2.30;;;;;;;23.40;35.77;101169.83;110786;1249;23101;-78
2022/05/08 11:36:40;;;;;;;6.40;2.10;;;;;;;23.60;35.61;101166.92;110852;1249;22258;-77
2022/05/08 11:39:16;;;;;;;7.80;3.20;;;;;;;23.62;35.42;101168.17;110592;1249;23597;-78
2022/05/08 11:41:51;;;;;;;5.20;2.50;;;;;;;23.62;35.22;101166.06;110630;1252;22093;-79
2022/05/08 11:44:25;;;;;;;8.80;2.40;;;;;;;23.63;35.32;101167.02;110588;1252;22465;-79
2022/05/08 11:46:58;;;;;;;4.90;1.80;;;;;;;23.64;35.02;101170.51;110228;1258;23588;-77
2022/05/08 11:49:32;;;;;;;5.80;2.40;;;;;;;23.58;34.88;101171.43;110275;1258;21976;-76
2022/05/08 11:52:06;;;;;;;5.00;2.10;;;;;;;23.45;34.68;101166.38;110292;1257;22016;-77
2022/05/08 11:54:38;;;;;;;7.40;2.60;;;;;;;23.34;35.01;101164.86;110155;1260;21967;-77
2022/05/08 11:57:18;;;;;;;9.60;2.80;;;;;;;23.31;35.22;101159.77;110332;1257;23635;-77
2022/05/08 11:59:51;;;;;;;5.10;1.40;;;;;;;23.35;35.12;101163.16;110360;1257;22759;-79
2022/05/08 12:02:42;;;;;;;5.40;1.60;;;;;;;23.38;35.21;101160.44;110187;1260;22750;-77
2022/05/08 12:05:25;;;;;;;6.00;2.40;;;;;;;23.37;35.04;101163.61;110310;1252;23757;-76
2022/05/08 12:07:54;;;;;;;5.70;1.70;;;;;;;23.32;34.92;101165.47;110636;1252;21960;-77